Impacts METAR Board
IDs:

KILE - Killeen/Skylark Fld, TX, US

Updated at: 1400 UTC 20 Oct 2021
Potential Impact None Slight Moderate High
Time 20/02Z 20/03Z 20/04Z 20/05Z 20/06Z 20/07Z 20/08Z 20/09Z 20/10Z 20/11Z 20/12Z 20/13Z 20/14Z
Temp71 70 68 67 66 65 67 67 67 68 68 68 69
Dewpt59 60 60 60 61 62 63 65 65 65 65 66 66
Altim30.02 30.03 30.04 30.06 30.06 30.07 30.07 30.08 30.08 30.09 30.09 30.10 30.11
VIS10 10 10 10 10 10 10 10 10 10 10 10 10
CIG-- -- -- -- -- -- 11 7 7 22 30 38 --
CoverCLRCLRCLRCLRCLRCLROVCOVCOVCOVCOVCOVCFEW
FltCatVFRVFRVFRVFRVFRVFRMVFRIFRIFRMVFRMVFRVFRVFR
WX--------------------------
WDir140150160150170150170180160170140190180
WSpd7 10 8 9 8 9 10 8 7 7 5 5 4
WGst-- -- -- -- -- -- -- -- -- -- -- -- --
Raw hourly METARs
KILE 200156Z AUTO 14007KT 10SM CLR 22/15 A3002 RMK AO2 SLP156 T02170150
KILE 200256Z AUTO 15010KT 10SM CLR 21/16 A3003 RMK AO2 SLP159 T02110156 51011
KILE 200356Z AUTO 16008KT 10SM CLR 20/16 A3004 RMK AO2 SLP163 T02000156
KILE 200456Z AUTO 15009KT 10SM CLR 19/16 A3006 RMK AO2 SLP169 T01940156
KILE 200556Z AUTO 17008KT 10SM CLR 19/16 A3006 RMK AO2 SLP171 T01890161 10233 20189 402720139 51012
KILE 200656Z AUTO 15009KT 10SM CLR 18/17 A3007 RMK AO2 SLP172 T01830167
KILE 200756Z AUTO 17010KT 10SM OVC011 19/17 A3007 RMK AO2 SLP173 T01940172
KILE 200856Z AUTO 18008KT 10SM OVC007 19/18 A3008 RMK AO2 SLP174 T01940183 53005
KILE 200956Z AUTO 16007KT 10SM BKN007 OVC020 19/18 A3008 RMK AO2 CIG 006V010 SLP174 T01940183
KILE 201056Z AUTO 17007KT 10SM FEW011 OVC022 20/18 A3009 RMK AO2 SLP178 T02000183
KILE 201156Z AUTO 14005KT 10SM FEW010 OVC030 20/18 A3009 RMK AO2 SLP182 T02000183 10200 20183 53005
KILE 201256Z AUTO 19005KT 10SM FEW010 SCT029 OVC038 20/19 A3010 RMK AO2 SLP185 T02000189
KILE 201356Z AUTO 18004KT 10SM FEW038 21/19 A3011 RMK AO2 SLP188 T02060189